Aviation Digital Data Service (ADDS)

Output produced by METARs form (2117 UTC 08 February 2023)
found at http://aviationweather.gov/metar/data/
 
METAR text: KDAB 082053Z 08011KT 10SM FEW043 FEW055 FEW250 24/13 A3023 RMK AO2 SLP237 T02390128 56014
Conditions at: KDAB (DAYTONA BEACH , FL, US) observed 2053 UTC 08 February 2023
Temperature: 23.9°C (75°F)
Dewpoint: 12.8°C (55°F) [RH = 50%]
Pressure (altimeter): 30.23 inches Hg (1023.8 mb)
[Sea-level pressure: 1023.7 mb]
Winds: from the E (80 degrees) at 13 MPH (11 knots; 5.7 m/s)
Visibility: 10 or more miles (16+ km)
Ceiling: at least 12,000 feet AGL
Clouds: few clouds at 4300 feet AGL
few clouds at 5500 feet AGL
few clouds at 25000 feet AGL
Weather: no significant weather observed at this time

METAR text: KDAB 081953Z 08010KT 10SM FEW055 25/13 A3024 RMK AO2 SLP238 T02500133
Conditions at: KDAB (DAYTONA BEACH , FL, US) observed 1953 UTC 08 February 2023
Temperature: 25.0°C (77°F)
Dewpoint: 13.3°C (56°F) [RH = 48%]
Pressure (altimeter): 30.24 inches Hg (1024.1 mb)
[Sea-level pressure: 1023.8 mb]
Winds: from the E (80 degrees) at 12 MPH (10 knots; 5.1 m/s)
Visibility: 10 or more miles (16+ km)
Ceiling: at least 12,000 feet AGL
Clouds: few clouds at 5500 feet AGL
Weather: no significant weather observed at this time

Forecast for: KDAB (DAYTONA BEACH , FL, US)
Text: KDAB 081738Z 0818/0918 08009KT P6SM SCT050 SCT250
Forecast period: 1800 UTC 08 February 2023 to 0100 UTC 09 February 2023
Forecast type: FROM: standard forecast or significant change
Winds: from the E (80 degrees) at 10 MPH (9 knots; 4.6 m/s)
Visibility: 6 or more miles (10+ km)
Ceiling: at least 12,000 feet AGL
Clouds: scattered clouds at 5000 feet AGL
scattered clouds at 25000 feet AGL
Weather: no significant weather forecast for this period
Text: FM090100 12002KT P6SM SCT045 SCT250
Forecast period: 0100 to 1500 UTC 09 February 2023
Forecast type: FROM: standard forecast or significant change
Winds: from the ESE (120 degrees) at 2 MPH (2 knots; 1.0 m/s)
Visibility: 6 or more miles (10+ km)
Ceiling: at least 12,000 feet AGL
Clouds: scattered clouds at 4500 feet AGL
scattered clouds at 25000 feet AGL
Weather: no significant weather forecast for this period
Text: FM091500 15007KT P6SM SCT040
Forecast period: 1500 to 1800 UTC 09 February 2023
Forecast type: FROM: standard forecast or significant change
Winds: from the SSE (150 degrees) at 8 MPH (7 knots; 3.6 m/s)
Visibility: 6 or more miles (10+ km)
Ceiling: at least 12,000 feet AGL
Clouds: scattered clouds at 4000 feet AGL
Weather: no significant weather forecast for this period